sensor_id;sensor_type;location;lat;lon;timestamp;P1;durP1;ratioP1;P2;durP2;ratioP2
8622;SDS011;4349;47.552;8.904;2023-03-23T00:02:22;4.70;;;4.40;;
8622;SDS011;4349;47.552;8.904;2023-03-23T00:04:48;4.53;;;4.10;;
8622;SDS011;4349;47.552;8.904;2023-03-23T00:07:17;4.40;;;4.10;;
8622;SDS011;4349;47.552;8.904;2023-03-23T00:09:46;4.33;;;4.10;;
8622;SDS011;4349;47.552;8.904;2023-03-23T00:12:12;4.37;;;4.03;;
8622;SDS011;4349;47.552;8.904;2023-03-23T00:14:40;4.00;;;3.80;;
8622;SDS011;4349;47.552;8.904;2023-03-23T00:17:08;4.20;;;4.00;;
8622;SDS011;4349;47.552;8.904;2023-03-23T00:19:36;3.90;;;3.60;;
8622;SDS011;4349;47.552;8.904;2023-03-23T00:22:11;4.83;;;4.43;;
8622;SDS011;4349;47.552;8.904;2023-03-23T00:24:39;3.70;;;3.50;;
8622;SDS011;4349;47.552;8.904;2023-03-23T00:27:05;4.83;;;4.10;;
8622;SDS011;4349;47.552;8.904;2023-03-23T00:29:34;4.67;;;4.27;;
8622;SDS011;4349;47.552;8.904;2023-03-23T00:32:00;4.70;;;4.10;;
8622;SDS011;4349;47.552;8.904;2023-03-23T00:34:31;3.83;;;3.63;;
8622;SDS011;4349;47.552;8.904;2023-03-23T00:36:59;4.63;;;4.23;;
8622;SDS011;4349;47.552;8.904;2023-03-23T00:39:27;4.57;;;4.03;;
8622;SDS011;4349;47.552;8.904;2023-03-23T00:41:55;4.20;;;4.00;;
8622;SDS011;4349;47.552;8.904;2023-03-23T00:44:26;4.17;;;3.87;;
8622;SDS011;4349;47.552;8.904;2023-03-23T00:46:53;4.10;;;3.90;;
8622;SDS011;4349;47.552;8.904;2023-03-23T00:49:21;3.97;;;3.77;;
8622;SDS011;4349;47.552;8.904;2023-03-23T00:51:50;4.37;;;3.97;;
8622;SDS011;4349;47.552;8.904;2023-03-23T00:54:16;4.07;;;3.80;;
8622;SDS011;4349;47.552;8.904;2023-03-23T00:56:43;4.13;;;3.93;;
8622;SDS011;4349;47.552;8.904;2023-03-23T00:59:11;4.13;;;3.83;;
8622;SDS011;4349;47.552;8.904;2023-03-23T01:01:37;4.20;;;3.80;;
8622;SDS011;4349;47.552;8.904;2023-03-23T01:04:04;4.20;;;3.90;;
8622;SDS011;4349;47.552;8.904;2023-03-23T01:06:31;4.27;;;3.97;;
8622;SDS011;4349;47.552;8.904;2023-03-23T01:09:01;3.50;;;3.30;;
8622;SDS011;4349;47.552;8.904;2023-03-23T01:11:28;3.97;;;3.63;;
8622;SDS011;4349;47.552;8.904;2023-03-23T01:13:54;4.47;;;4.27;;
8622;SDS011;4349;47.552;8.904;2023-03-23T01:16:22;3.83;;;3.53;;
8622;SDS011;4349;47.552;8.904;2023-03-23T01:18:49;4.50;;;4.20;;
8622;SDS011;4349;47.552;8.904;2023-03-23T01:21:16;4.20;;;3.90;;
8622;SDS011;4349;47.552;8.904;2023-03-23T01:23:43;4.10;;;3.90;;
8622;SDS011;4349;47.552;8.904;2023-03-23T01:26:11;4.07;;;3.77;;
8622;SDS011;4349;47.552;8.904;2023-03-23T01:28:38;4.40;;;4.10;;
8622;SDS011;4349;47.552;8.904;2023-03-23T01:31:05;4.30;;;4.10;;
8622;SDS011;4349;47.552;8.904;2023-03-23T01:33:35;4.30;;;4.00;;
8622;SDS011;4349;47.552;8.904;2023-03-23T01:36:02;4.33;;;4.10;;
8622;SDS011;4349;47.552;8.904;2023-03-23T01:38:29;4.10;;;3.80;;
8622;SDS011;4349;47.552;8.904;2023-03-23T01:40:56;4.30;;;4.10;;
8622;SDS011;4349;47.552;8.904;2023-03-23T01:43:22;4.13;;;3.90;;
8622;SDS011;4349;47.552;8.904;2023-03-23T01:45:48;4.43;;;4.17;;
8622;SDS011;4349;47.552;8.904;2023-03-23T01:48:16;3.97;;;3.57;;
8622;SDS011;4349;47.552;8.904;2023-03-23T01:50:49;3.60;;;3.40;;
8622;SDS011;4349;47.552;8.904;2023-03-23T01:53:16;3.60;;;3.40;;
8622;SDS011;4349;47.552;8.904;2023-03-23T01:55:45;4.20;;;4.00;;
8622;SDS011;4349;47.552;8.904;2023-03-23T01:58:16;4.20;;;3.90;;
8622;SDS011;4349;47.552;8.904;2023-03-23T02:00:43;4.97;;;4.67;;
8622;SDS011;4349;47.552;8.904;2023-03-23T02:03:09;5.47;;;5.03;;
8622;SDS011;4349;47.552;8.904;2023-03-23T02:05:39;5.13;;;4.73;;
8622;SDS011;4349;47.552;8.904;2023-03-23T02:08:16;4.53;;;4.23;;
8622;SDS011;4349;47.552;8.904;2023-03-23T02:10:44;4.00;;;3.63;;
8622;SDS011;4349;47.552;8.904;2023-03-23T02:13:11;4.40;;;4.10;;
8622;SDS011;4349;47.552;8.904;2023-03-23T02:15:49;4.40;;;4.10;;
8622;SDS011;4349;47.552;8.904;2023-03-23T02:18:20;4.30;;;4.10;;
8622;SDS011;4349;47.552;8.904;2023-03-23T02:20:57;4.20;;;3.90;;
8622;SDS011;4349;47.552;8.904;2023-03-23T02:23:35;4.40;;;4.20;;
8622;SDS011;4349;47.552;8.904;2023-03-23T02:26:11;4.50;;;4.20;;
8622;SDS011;4349;47.552;8.904;2023-03-23T02:29:07;4.80;;;4.40;;
8622;SDS011;4349;47.552;8.904;2023-03-23T02:31:43;4.50;;;4.20;;
8622;SDS011;4349;47.552;8.904;2023-03-23T02:34:12;4.17;;;3.90;;
8622;SDS011;4349;47.552;8.904;2023-03-23T02:36:41;4.07;;;3.83;;
8622;SDS011;4349;47.552;8.904;2023-03-23T02:39:12;4.50;;;4.23;;
8622;SDS011;4349;47.552;8.904;2023-03-23T02:41:41;4.63;;;4.30;;
8622;SDS011;4349;47.552;8.904;2023-03-23T02:44:08;4.77;;;4.43;;
8622;SDS011;4349;47.552;8.904;2023-03-23T02:46:36;4.83;;;4.53;;
8622;SDS011;4349;47.552;8.904;2023-03-23T02:49:03;4.50;;;4.10;;
8622;SDS011;4349;47.552;8.904;2023-03-23T02:51:31;4.27;;;4.03;;
8622;SDS011;4349;47.552;8.904;2023-03-23T02:53:59;4.70;;;4.30;;
8622;SDS011;4349;47.552;8.904;2023-03-23T02:56:25;5.93;;;4.50;;
8622;SDS011;4349;47.552;8.904;2023-03-23T02:58:54;4.60;;;4.30;;
8622;SDS011;4349;47.552;8.904;2023-03-23T03:04:07;4.20;;;4.00;;
8622;SDS011;4349;47.552;8.904;2023-03-23T03:06:36;4.23;;;3.93;;
8622;SDS011;4349;47.552;8.904;2023-03-23T03:09:05;5.00;;;3.87;;
8622;SDS011;4349;47.552;8.904;2023-03-23T03:11:33;4.10;;;3.80;;
8622;SDS011;4349;47.552;8.904;2023-03-23T03:14:04;3.83;;;3.63;;
8622;SDS011;4349;47.552;8.904;2023-03-23T03:16:33;3.93;;;3.57;;
8622;SDS011;4349;47.552;8.904;2023-03-23T03:19:02;4.27;;;4.07;;
8622;SDS011;4349;47.552;8.904;2023-03-23T03:21:29;3.97;;;3.57;;
8622;SDS011;4349;47.552;8.904;2023-03-23T03:24:00;3.80;;;3.60;;
8622;SDS011;4349;47.552;8.904;2023-03-23T03:26:27;4.97;;;4.50;;
8622;SDS011;4349;47.552;8.904;2023-03-23T03:29:00;4.80;;;4.50;;
8622;SDS011;4349;47.552;8.904;2023-03-23T03:31:29;4.90;;;4.53;;
8622;SDS011;4349;47.552;8.904;2023-03-23T03:33:56;4.83;;;4.50;;
8622;SDS011;4349;47.552;8.904;2023-03-23T03:36:28;4.53;;;4.33;;
8622;SDS011;4349;47.552;8.904;2023-03-23T03:39:02;4.70;;;4.40;;
8622;SDS011;4349;47.552;8.904;2023-03-23T03:41:32;4.97;;;4.57;;
8622;SDS011;4349;47.552;8.904;2023-03-23T03:43:59;4.70;;;4.40;;
8622;SDS011;4349;47.552;8.904;2023-03-23T03:46:25;4.67;;;4.27;;
8622;SDS011;4349;47.552;8.904;2023-03-23T03:48:55;4.23;;;4.03;;
8622;SDS011;4349;47.552;8.904;2023-03-23T03:51:22;4.80;;;4.50;;
8622;SDS011;4349;47.552;8.904;2023-03-23T03:53:50;5.37;;;4.97;;
8622;SDS011;4349;47.552;8.904;2023-03-23T03:56:18;5.27;;;4.87;;
8622;SDS011;4349;47.552;8.904;2023-03-23T03:58:56;5.17;;;4.83;;
8622;SDS011;4349;47.552;8.904;2023-03-23T04:01:45;5.00;;;4.70;;
8622;SDS011;4349;47.552;8.904;2023-03-23T04:04:12;4.63;;;4.33;;
8622;SDS011;4349;47.552;8.904;2023-03-23T04:06:38;4.77;;;4.47;;
8622;SDS011;4349;47.552;8.904;2023-03-23T04:09:05;5.10;;;4.63;;
8622;SDS011;4349;47.552;8.904;2023-03-23T04:11:35;4.50;;;4.23;;
8622;SDS011;4349;47.552;8.904;2023-03-23T04:14:36;4.47;;;4.17;;
8622;SDS011;4349;47.552;8.904;2023-03-23T04:17:03;4.50;;;4.07;;
8622;SDS011;4349;47.552;8.904;2023-03-23T04:19:29;4.03;;;3.73;;
8622;SDS011;4349;47.552;8.904;2023-03-23T04:21:58;3.67;;;3.37;;
8622;SDS011;4349;47.552;8.904;2023-03-23T04:24:25;5.57;;;4.50;;
8622;SDS011;4349;47.552;8.904;2023-03-23T04:26:55;3.70;;;3.40;;
8622;SDS011;4349;47.552;8.904;2023-03-23T04:29:26;3.97;;;3.63;;
8622;SDS011;4349;47.552;8.904;2023-03-23T04:32:12;3.40;;;3.30;;
8622;SDS011;4349;47.552;8.904;2023-03-23T04:34:43;2.97;;;2.77;;
8622;SDS011;4349;47.552;8.904;2023-03-23T04:37:10;2.80;;;2.70;;
8622;SDS011;4349;47.552;8.904;2023-03-23T04:39:38;3.13;;;2.83;;
8622;SDS011;4349;47.552;8.904;2023-03-23T04:42:08;3.10;;;2.30;;
8622;SDS011;4349;47.552;8.904;2023-03-23T04:44:43;2.83;;;2.53;;
8622;SDS011;4349;47.552;8.904;2023-03-23T04:47:18;3.63;;;2.40;;
8622;SDS011;4349;47.552;8.904;2023-03-23T04:49:52;2.50;;;2.30;;
8622;SDS011;4349;47.552;8.904;2023-03-23T04:52:26;3.03;;;2.93;;
8622;SDS011;4349;47.552;8.904;2023-03-23T04:54:55;3.63;;;3.33;;
8622;SDS011;4349;47.552;8.904;2023-03-23T04:57:24;3.00;;;2.80;;
8622;SDS011;4349;47.552;8.904;2023-03-23T05:00:12;3.40;;;3.20;;
8622;SDS011;4349;47.552;8.904;2023-03-23T05:02:45;3.53;;;3.30;;
8622;SDS011;4349;47.552;8.904;2023-03-23T05:05:16;3.93;;;3.73;;
8622;SDS011;4349;47.552;8.904;2023-03-23T05:07:43;4.20;;;3.90;;
8622;SDS011;4349;47.552;8.904;2023-03-23T05:10:12;4.10;;;3.80;;
8622;SDS011;4349;47.552;8.904;2023-03-23T05:12:42;4.60;;;4.23;;
8622;SDS011;4349;47.552;8.904;2023-03-23T05:15:10;3.63;;;3.30;;
8622;SDS011;4349;47.552;8.904;2023-03-23T05:17:37;5.13;;;3.73;;
8622;SDS011;4349;47.552;8.904;2023-03-23T05:20:12;4.00;;;3.60;;
8622;SDS011;4349;47.552;8.904;2023-03-23T05:22:42;4.20;;;3.90;;
8622;SDS011;4349;47.552;8.904;2023-03-23T05:25:12;6.77;;;4.00;;
8622;SDS011;4349;47.552;8.904;2023-03-23T05:27:44;4.10;;;3.90;;
8622;SDS011;4349;47.552;8.904;2023-03-23T05:30:40;4.03;;;3.70;;
8622;SDS011;4349;47.552;8.904;2023-03-23T05:33:10;3.77;;;3.57;;
8622;SDS011;4349;47.552;8.904;2023-03-23T05:36:09;4.90;;;4.47;;
8622;SDS011;4349;47.552;8.904;2023-03-23T05:38:58;4.87;;;4.37;;
8622;SDS011;4349;47.552;8.904;2023-03-23T05:41:38;5.40;;;3.90;;
8622;SDS011;4349;47.552;8.904;2023-03-23T05:44:06;4.80;;;4.40;;
8622;SDS011;4349;47.552;8.904;2023-03-23T05:46:44;4.73;;;4.33;;
8622;SDS011;4349;47.552;8.904;2023-03-23T05:49:11;4.67;;;4.37;;
8622;SDS011;4349;47.552;8.904;2023-03-23T05:51:40;4.30;;;4.00;;
8622;SDS011;4349;47.552;8.904;2023-03-23T05:54:06;3.87;;;3.67;;
8622;SDS011;4349;47.552;8.904;2023-03-23T05:56:34;3.90;;;3.60;;
8622;SDS011;4349;47.552;8.904;2023-03-23T05:59:23;4.43;;;4.03;;
8622;SDS011;4349;47.552;8.904;2023-03-23T06:01:51;3.83;;;3.60;;
8622;SDS011;4349;47.552;8.904;2023-03-23T06:04:19;4.13;;;3.87;;
8622;SDS011;4349;47.552;8.904;2023-03-23T06:07:00;4.40;;;4.07;;
8622;SDS011;4349;47.552;8.904;2023-03-23T06:09:27;4.20;;;3.80;;
8622;SDS011;4349;47.552;8.904;2023-03-23T06:12:12;3.83;;;3.53;;
8622;SDS011;4349;47.552;8.904;2023-03-23T06:15:00;3.47;;;3.20;;
8622;SDS011;4349;47.552;8.904;2023-03-23T06:17:47;3.70;;;3.20;;
8622;SDS011;4349;47.552;8.904;2023-03-23T06:20:15;2.80;;;2.60;;
8622;SDS011;4349;47.552;8.904;2023-03-23T06:22:42;2.23;;;2.20;;
8622;SDS011;4349;47.552;8.904;2023-03-23T06:25:12;1.90;;;1.90;;
8622;SDS011;4349;47.552;8.904;2023-03-23T06:27:42;2.10;;;2.00;;
8622;SDS011;4349;47.552;8.904;2023-03-23T06:30:11;1.97;;;1.87;;
8622;SDS011;4349;47.552;8.904;2023-03-23T06:32:37;3.27;;;1.70;;
8622;SDS011;4349;47.552;8.904;2023-03-23T06:35:09;2.10;;;1.93;;
8622;SDS011;4349;47.552;8.904;2023-03-23T06:37:51;1.83;;;1.70;;
8622;SDS011;4349;47.552;8.904;2023-03-23T06:40:27;1.60;;;1.60;;
8622;SDS011;4349;47.552;8.904;2023-03-23T06:42:56;2.00;;;1.90;;
8622;SDS011;4349;47.552;8.904;2023-03-23T06:46:02;3.27;;;2.77;;
8622;SDS011;4349;47.552;8.904;2023-03-23T06:48:41;2.23;;;2.00;;
8622;SDS011;4349;47.552;8.904;2023-03-23T06:51:11;2.10;;;1.90;;
8622;SDS011;4349;47.552;8.904;2023-03-23T06:53:40;2.77;;;2.03;;
8622;SDS011;4349;47.552;8.904;2023-03-23T06:56:10;1.60;;;1.60;;
8622;SDS011;4349;47.552;8.904;2023-03-23T06:58:39;1.90;;;1.80;;
8622;SDS011;4349;47.552;8.904;2023-03-23T07:01:08;2.00;;;1.90;;
8622;SDS011;4349;47.552;8.904;2023-03-23T07:03:40;1.57;;;1.57;;
8622;SDS011;4349;47.552;8.904;2023-03-23T07:06:09;2.03;;;1.93;;
8622;SDS011;4349;47.552;8.904;2023-03-23T07:08:44;1.73;;;1.67;;
8622;SDS011;4349;47.552;8.904;2023-03-23T07:11:15;1.80;;;1.77;;
8622;SDS011;4349;47.552;8.904;2023-03-23T07:13:41;1.90;;;1.80;;
8622;SDS011;4349;47.552;8.904;2023-03-23T07:16:10;1.63;;;1.60;;
8622;SDS011;4349;47.552;8.904;2023-03-23T07:18:37;1.90;;;1.80;;
8622;SDS011;4349;47.552;8.904;2023-03-23T07:21:04;1.87;;;1.60;;
8622;SDS011;4349;47.552;8.904;2023-03-23T07:23:31;1.70;;;1.70;;
8622;SDS011;4349;47.552;8.904;2023-03-23T07:26:03;2.50;;;2.07;;
8622;SDS011;4349;47.552;8.904;2023-03-23T07:28:36;6.30;;;3.80;;
8622;SDS011;4349;47.552;8.904;2023-03-23T07:31:15;5.20;;;3.37;;
8622;SDS011;4349;47.552;8.904;2023-03-23T07:33:41;3.20;;;3.00;;
8622;SDS011;4349;47.552;8.904;2023-03-23T07:36:09;3.17;;;2.80;;
8622;SDS011;4349;47.552;8.904;2023-03-23T07:38:36;2.87;;;2.63;;
8622;SDS011;4349;47.552;8.904;2023-03-23T07:41:03;2.67;;;2.47;;
8622;SDS011;4349;47.552;8.904;2023-03-23T07:43:30;3.03;;;2.30;;
8622;SDS011;4349;47.552;8.904;2023-03-23T07:45:57;4.47;;;2.60;;
8622;SDS011;4349;47.552;8.904;2023-03-23T07:48:30;2.30;;;2.20;;
8622;SDS011;4349;47.552;8.904;2023-03-23T07:50:58;2.30;;;2.20;;
8622;SDS011;4349;47.552;8.904;2023-03-23T07:53:26;2.10;;;2.00;;
8622;SDS011;4349;47.552;8.904;2023-03-23T07:56:05;2.00;;;1.90;;
8622;SDS011;4349;47.552;8.904;2023-03-23T07:58:47;2.60;;;2.27;;
8622;SDS011;4349;47.552;8.904;2023-03-23T08:01:14;3.37;;;2.10;;
8622;SDS011;4349;47.552;8.904;2023-03-23T08:03:52;2.03;;;1.93;;
8622;SDS011;4349;47.552;8.904;2023-03-23T08:06:47;2.47;;;2.00;;
8622;SDS011;4349;47.552;8.904;2023-03-23T08:09:26;1.77;;;1.77;;
8622;SDS011;4349;47.552;8.904;2023-03-23T08:12:06;1.77;;;1.77;;
8622;SDS011;4349;47.552;8.904;2023-03-23T08:15:05;2.30;;;2.10;;
8622;SDS011;4349;47.552;8.904;2023-03-23T08:17:45;1.93;;;1.87;;
8622;SDS011;4349;47.552;8.904;2023-03-23T08:20:32;4.20;;;1.90;;
8622;SDS011;4349;47.552;8.904;2023-03-23T08:22:59;2.00;;;1.90;;
8622;SDS011;4349;47.552;8.904;2023-03-23T08:25:47;4.13;;;1.80;;
8622;SDS011;4349;47.552;8.904;2023-03-23T08:28:17;2.10;;;2.00;;
8622;SDS011;4349;47.552;8.904;2023-03-23T08:31:05;2.00;;;1.90;;
8622;SDS011;4349;47.552;8.904;2023-03-23T08:33:41;1.80;;;1.70;;
8622;SDS011;4349;47.552;8.904;2023-03-23T08:36:24;2.40;;;1.70;;
8622;SDS011;4349;47.552;8.904;2023-03-23T08:39:05;1.77;;;1.77;;
8622;SDS011;4349;47.552;8.904;2023-03-23T08:41:51;1.70;;;1.70;;
8622;SDS011;4349;47.552;8.904;2023-03-23T08:44:35;2.03;;;1.87;;
8622;SDS011;4349;47.552;8.904;2023-03-23T08:47:28;2.63;;;2.53;;
8622;SDS011;4349;47.552;8.904;2023-03-23T08:50:14;2.93;;;2.20;;
8622;SDS011;4349;47.552;8.904;2023-03-23T08:52:53;2.23;;;2.13;;
8622;SDS011;4349;47.552;8.904;2023-03-23T08:55:33;3.30;;;2.00;;
8622;SDS011;4349;47.552;8.904;2023-03-23T08:58:22;2.40;;;2.00;;
8622;SDS011;4349;47.552;8.904;2023-03-23T09:01:02;2.10;;;2.00;;
8622;SDS011;4349;47.552;8.904;2023-03-23T09:03:42;2.17;;;1.93;;
8622;SDS011;4349;47.552;8.904;2023-03-23T09:06:28;3.07;;;2.00;;
8622;SDS011;4349;47.552;8.904;2023-03-23T09:08:56;2.00;;;1.90;;
8622;SDS011;4349;47.552;8.904;2023-03-23T09:11:22;3.73;;;1.87;;
8622;SDS011;4349;47.552;8.904;2023-03-23T09:13:48;2.10;;;2.00;;
8622;SDS011;4349;47.552;8.904;2023-03-23T09:16:15;2.07;;;1.90;;
8622;SDS011;4349;47.552;8.904;2023-03-23T09:18:41;2.47;;;1.80;;
8622;SDS011;4349;47.552;8.904;2023-03-23T09:21:09;2.73;;;1.60;;
8622;SDS011;4349;47.552;8.904;2023-03-23T09:23:35;2.03;;;1.90;;
8622;SDS011;4349;47.552;8.904;2023-03-23T09:26:03;1.93;;;1.83;;
8622;SDS011;4349;47.552;8.904;2023-03-23T09:28:30;2.03;;;1.93;;
8622;SDS011;4349;47.552;8.904;2023-03-23T09:30:57;2.07;;;1.90;;
8622;SDS011;4349;47.552;8.904;2023-03-23T09:33:24;2.03;;;1.93;;
8622;SDS011;4349;47.552;8.904;2023-03-23T09:35:51;2.00;;;1.90;;
8622;SDS011;4349;47.552;8.904;2023-03-23T09:38:17;2.10;;;2.00;;
8622;SDS011;4349;47.552;8.904;2023-03-23T09:40:45;1.90;;;1.80;;
8622;SDS011;4349;47.552;8.904;2023-03-23T09:43:19;1.60;;;1.53;;
8622;SDS011;4349;47.552;8.904;2023-03-23T09:45:49;2.00;;;1.90;;
8622;SDS011;4349;47.552;8.904;2023-03-23T09:51:04;1.63;;;1.60;;
8622;SDS011;4349;47.552;8.904;2023-03-23T09:53:36;1.73;;;1.63;;
8622;SDS011;4349;47.552;8.904;2023-03-23T09:56:08;1.80;;;1.80;;
8622;SDS011;4349;47.552;8.904;2023-03-23T09:58:37;1.60;;;1.50;;
8622;SDS011;4349;47.552;8.904;2023-03-23T10:01:08;1.90;;;1.80;;
8622;SDS011;4349;47.552;8.904;2023-03-23T10:03:37;1.80;;;1.70;;
8622;SDS011;4349;47.552;8.904;2023-03-23T10:06:05;1.97;;;1.90;;
8622;SDS011;4349;47.552;8.904;2023-03-23T10:08:33;2.07;;;1.87;;
8622;SDS011;4349;47.552;8.904;2023-03-23T10:11:01;1.97;;;1.87;;
8622;SDS011;4349;47.552;8.904;2023-03-23T10:13:43;1.83;;;1.80;;
8622;SDS011;4349;47.552;8.904;2023-03-23T10:16:17;1.70;;;1.70;;
8622;SDS011;4349;47.552;8.904;2023-03-23T10:18:46;2.20;;;2.10;;
8622;SDS011;4349;47.552;8.904;2023-03-23T10:21:14;2.20;;;2.00;;
8622;SDS011;4349;47.552;8.904;2023-03-23T10:23:45;2.43;;;2.23;;
8622;SDS011;4349;47.552;8.904;2023-03-23T10:26:16;2.27;;;2.17;;
8622;SDS011;4349;47.552;8.904;2023-03-23T10:28:44;2.20;;;2.10;;
8622;SDS011;4349;47.552;8.904;2023-03-23T10:31:13;2.17;;;2.07;;
8622;SDS011;4349;47.552;8.904;2023-03-23T10:33:45;2.37;;;2.27;;
8622;SDS011;4349;47.552;8.904;2023-03-23T10:36:13;2.30;;;2.20;;
8622;SDS011;4349;47.552;8.904;2023-03-23T10:38:42;2.30;;;2.00;;
8622;SDS011;4349;47.552;8.904;2023-03-23T10:41:10;2.03;;;1.93;;
8622;SDS011;4349;47.552;8.904;2023-03-23T10:43:37;1.73;;;1.67;;
8622;SDS011;4349;47.552;8.904;2023-03-23T10:46:05;1.90;;;1.80;;
8622;SDS011;4349;47.552;8.904;2023-03-23T10:48:37;2.87;;;1.97;;
8622;SDS011;4349;47.552;8.904;2023-03-23T10:51:06;2.47;;;1.77;;
8622;SDS011;4349;47.552;8.904;2023-03-23T10:53:36;2.33;;;2.13;;
8622;SDS011;4349;47.552;8.904;2023-03-23T10:56:04;2.00;;;1.90;;
8622;SDS011;4349;47.552;8.904;2023-03-23T10:58:31;2.43;;;2.23;;
8622;SDS011;4349;47.552;8.904;2023-03-23T11:00:58;2.03;;;1.93;;
8622;SDS011;4349;47.552;8.904;2023-03-23T11:03:29;2.60;;;1.97;;
8622;SDS011;4349;47.552;8.904;2023-03-23T11:05:59;3.13;;;2.07;;
8622;SDS011;4349;47.552;8.904;2023-03-23T11:08:30;2.20;;;1.73;;
8622;SDS011;4349;47.552;8.904;2023-03-23T11:10:58;2.17;;;2.07;;
8622;SDS011;4349;47.552;8.904;2023-03-23T11:13:28;2.20;;;1.90;;
8622;SDS011;4349;47.552;8.904;2023-03-23T11:15:55;2.10;;;2.00;;
8622;SDS011;4349;47.552;8.904;2023-03-23T11:18:22;1.97;;;1.87;;
8622;SDS011;4349;47.552;8.904;2023-03-23T11:20:50;2.60;;;2.00;;
8622;SDS011;4349;47.552;8.904;2023-03-23T11:23:20;2.10;;;2.00;;
8622;SDS011;4349;47.552;8.904;2023-03-23T11:25:52;1.70;;;1.60;;
8622;SDS011;4349;47.552;8.904;2023-03-23T11:28:20;1.83;;;1.83;;
8622;SDS011;4349;47.552;8.904;2023-03-23T11:30:47;1.80;;;1.80;;
8622;SDS011;4349;47.552;8.904;2023-03-23T11:33:13;2.50;;;2.03;;
8622;SDS011;4349;47.552;8.904;2023-03-23T11:35:43;1.87;;;1.80;;
8622;SDS011;4349;47.552;8.904;2023-03-23T11:38:14;2.10;;;2.00;;
8622;SDS011;4349;47.552;8.904;2023-03-23T11:40:43;1.90;;;1.70;;
8622;SDS011;4349;47.552;8.904;2023-03-23T11:43:13;1.83;;;1.83;;
8622;SDS011;4349;47.552;8.904;2023-03-23T11:45:41;2.83;;;2.03;;
8622;SDS011;4349;47.552;8.904;2023-03-23T11:48:15;1.90;;;1.80;;
8622;SDS011;4349;47.552;8.904;2023-03-23T11:50:47;2.17;;;1.80;;
8622;SDS011;4349;47.552;8.904;2023-03-23T11:53:15;1.77;;;1.67;;
8622;SDS011;4349;47.552;8.904;2023-03-23T11:55:55;2.03;;;1.93;;
8622;SDS011;4349;47.552;8.904;2023-03-23T11:58:25;1.90;;;1.80;;
8622;SDS011;4349;47.552;8.904;2023-03-23T12:00:58;2.10;;;2.00;;
8622;SDS011;4349;47.552;8.904;2023-03-23T12:03:25;1.50;;;1.50;;
8622;SDS011;4349;47.552;8.904;2023-03-23T12:05:56;1.90;;;1.80;;
8622;SDS011;4349;47.552;8.904;2023-03-23T12:08:30;2.40;;;1.83;;
8622;SDS011;4349;47.552;8.904;2023-03-23T12:11:01;1.83;;;1.73;;
8622;SDS011;4349;47.552;8.904;2023-03-23T12:13:35;1.90;;;1.80;;
8622;SDS011;4349;47.552;8.904;2023-03-23T12:16:06;2.57;;;2.47;;
8622;SDS011;4349;47.552;8.904;2023-03-23T12:18:38;1.80;;;1.70;;
8622;SDS011;4349;47.552;8.904;2023-03-23T12:21:09;2.27;;;2.10;;
8622;SDS011;4349;47.552;8.904;2023-03-23T12:23:40;1.90;;;1.77;;
8622;SDS011;4349;47.552;8.904;2023-03-23T12:26:11;2.00;;;1.90;;
8622;SDS011;4349;47.552;8.904;2023-03-23T12:28:44;2.13;;;1.80;;
8622;SDS011;4349;47.552;8.904;2023-03-23T12:31:15;1.80;;;1.70;;
8622;SDS011;4349;47.552;8.904;2023-03-23T12:33:49;2.03;;;1.90;;
8622;SDS011;4349;47.552;8.904;2023-03-23T12:36:24;1.97;;;1.87;;
8622;SDS011;4349;47.552;8.904;2023-03-23T12:38:59;2.10;;;2.00;;
8622;SDS011;4349;47.552;8.904;2023-03-23T12:41:29;2.00;;;1.90;;
8622;SDS011;4349;47.552;8.904;2023-03-23T12:44:01;1.90;;;1.90;;
8622;SDS011;4349;47.552;8.904;2023-03-23T12:49:20;1.80;;;1.70;;
8622;SDS011;4349;47.552;8.904;2023-03-23T12:51:49;2.00;;;1.90;;
8622;SDS011;4349;47.552;8.904;2023-03-23T12:54:18;1.80;;;1.70;;
8622;SDS011;4349;47.552;8.904;2023-03-23T12:56:46;1.77;;;1.67;;
8622;SDS011;4349;47.552;8.904;2023-03-23T12:59:19;1.77;;;1.67;;
8622;SDS011;4349;47.552;8.904;2023-03-23T13:01:48;2.00;;;1.70;;
8622;SDS011;4349;47.552;8.904;2023-03-23T13:04:18;2.77;;;1.60;;
8622;SDS011;4349;47.552;8.904;2023-03-23T13:06:46;1.47;;;1.47;;
8622;SDS011;4349;47.552;8.904;2023-03-23T13:09:15;1.73;;;1.70;;
8622;SDS011;4349;47.552;8.904;2023-03-23T13:11:43;2.10;;;2.00;;
8622;SDS011;4349;47.552;8.904;2023-03-23T13:17:00;1.80;;;1.70;;
8622;SDS011;4349;47.552;8.904;2023-03-23T13:19:30;1.90;;;1.80;;
8622;SDS011;4349;47.552;8.904;2023-03-23T13:22:00;2.07;;;1.87;;
8622;SDS011;4349;47.552;8.904;2023-03-23T13:24:29;1.90;;;1.80;;
8622;SDS011;4349;47.552;8.904;2023-03-23T13:26:57;1.73;;;1.73;;
8622;SDS011;4349;47.552;8.904;2023-03-23T13:29:26;1.90;;;1.80;;
8622;SDS011;4349;47.552;8.904;2023-03-23T13:32:04;1.70;;;1.60;;
8622;SDS011;4349;47.552;8.904;2023-03-23T13:34:32;1.70;;;1.60;;
8622;SDS011;4349;47.552;8.904;2023-03-23T13:36:59;1.83;;;1.70;;
8622;SDS011;4349;47.552;8.904;2023-03-23T13:39:28;2.17;;;1.70;;
8622;SDS011;4349;47.552;8.904;2023-03-23T13:41:59;2.37;;;1.83;;
8622;SDS011;4349;47.552;8.904;2023-03-23T13:44:27;2.10;;;2.00;;
8622;SDS011;4349;47.552;8.904;2023-03-23T13:46:55;3.23;;;1.73;;
8622;SDS011;4349;47.552;8.904;2023-03-23T13:49:24;1.80;;;1.70;;
8622;SDS011;4349;47.552;8.904;2023-03-23T13:52:00;1.80;;;1.70;;
8622;SDS011;4349;47.552;8.904;2023-03-23T13:54:30;3.33;;;2.33;;
8622;SDS011;4349;47.552;8.904;2023-03-23T13:56:58;2.80;;;1.87;;
8622;SDS011;4349;47.552;8.904;2023-03-23T13:59:31;2.10;;;2.00;;
8622;SDS011;4349;47.552;8.904;2023-03-23T14:04:40;2.97;;;1.93;;
8622;SDS011;4349;47.552;8.904;2023-03-23T14:07:08;3.20;;;1.90;;
8622;SDS011;4349;47.552;8.904;2023-03-23T14:09:37;2.13;;;2.00;;
8622;SDS011;4349;47.552;8.904;2023-03-23T14:12:05;2.07;;;1.97;;
8622;SDS011;4349;47.552;8.904;2023-03-23T14:14:38;2.27;;;2.13;;
8622;SDS011;4349;47.552;8.904;2023-03-23T14:17:06;2.27;;;2.10;;
8622;SDS011;4349;47.552;8.904;2023-03-23T14:19:32;2.50;;;2.00;;
8622;SDS011;4349;47.552;8.904;2023-03-23T14:22:01;3.23;;;2.17;;
8622;SDS011;4349;47.552;8.904;2023-03-23T14:24:28;2.60;;;2.37;;
8622;SDS011;4349;47.552;8.904;2023-03-23T14:27:01;2.23;;;2.07;;
8622;SDS011;4349;47.552;8.904;2023-03-23T14:29:28;2.20;;;1.90;;
8622;SDS011;4349;47.552;8.904;2023-03-23T14:31:55;2.23;;;2.13;;
8622;SDS011;4349;47.552;8.904;2023-03-23T14:34:23;2.03;;;1.93;;
8622;SDS011;4349;47.552;8.904;2023-03-23T14:36:51;2.83;;;2.20;;
8622;SDS011;4349;47.552;8.904;2023-03-23T14:39:21;2.20;;;2.10;;
8622;SDS011;4349;47.552;8.904;2023-03-23T14:41:48;1.93;;;1.80;;
8622;SDS011;4349;47.552;8.904;2023-03-23T14:44:15;2.47;;;2.37;;
8622;SDS011;4349;47.552;8.904;2023-03-23T14:46:42;2.33;;;2.03;;
8622;SDS011;4349;47.552;8.904;2023-03-23T14:49:10;1.80;;;1.80;;
8622;SDS011;4349;47.552;8.904;2023-03-23T14:51:46;2.40;;;2.20;;
8622;SDS011;4349;47.552;8.904;2023-03-23T14:54:13;2.30;;;2.20;;
8622;SDS011;4349;47.552;8.904;2023-03-23T14:56:40;2.23;;;2.10;;
8622;SDS011;4349;47.552;8.904;2023-03-23T14:59:09;3.20;;;1.90;;
8622;SDS011;4349;47.552;8.904;2023-03-23T15:01:36;2.20;;;2.10;;
8622;SDS011;4349;47.552;8.904;2023-03-23T15:04:04;2.30;;;2.10;;
8622;SDS011;4349;47.552;8.904;2023-03-23T15:06:33;1.90;;;1.80;;
8622;SDS011;4349;47.552;8.904;2023-03-23T15:09:02;2.50;;;2.30;;
8622;SDS011;4349;47.552;8.904;2023-03-23T15:11:29;2.27;;;2.17;;
8622;SDS011;4349;47.552;8.904;2023-03-23T15:13:58;2.67;;;2.00;;
8622;SDS011;4349;47.552;8.904;2023-03-23T15:16:29;2.40;;;2.30;;
8622;SDS011;4349;47.552;8.904;2023-03-23T15:18:56;2.27;;;2.17;;
8622;SDS011;4349;47.552;8.904;2023-03-23T15:21:24;1.90;;;1.80;;
8622;SDS011;4349;47.552;8.904;2023-03-23T15:23:52;2.07;;;1.90;;
8622;SDS011;4349;47.552;8.904;2023-03-23T15:26:22;2.23;;;1.83;;
8622;SDS011;4349;47.552;8.904;2023-03-23T15:28:49;2.47;;;2.13;;
8622;SDS011;4349;47.552;8.904;2023-03-23T15:31:17;1.80;;;1.77;;
8622;SDS011;4349;47.552;8.904;2023-03-23T15:33:43;2.63;;;2.03;;
8622;SDS011;4349;47.552;8.904;2023-03-23T15:36:14;2.63;;;2.33;;
8622;SDS011;4349;47.552;8.904;2023-03-23T15:38:42;2.23;;;2.00;;
8622;SDS011;4349;47.552;8.904;2023-03-23T15:41:19;2.00;;;1.90;;
8622;SDS011;4349;47.552;8.904;2023-03-23T15:43:50;2.10;;;2.00;;
8622;SDS011;4349;47.552;8.904;2023-03-23T15:46:21;1.87;;;1.77;;
8622;SDS011;4349;47.552;8.904;2023-03-23T15:48:48;2.17;;;2.00;;
8622;SDS011;4349;47.552;8.904;2023-03-23T15:51:15;2.03;;;1.93;;
8622;SDS011;4349;47.552;8.904;2023-03-23T15:53:42;2.23;;;2.03;;